Time;durP1;ratioP1;P1;durP2;ratioP2;P2;SDS_P1;SDS_P2;PMS_P1;PMS_P2;Temp;Humidity;BMP_temperature;BMP_pressure;BME280_temperature;BME280_humidity;BME280_pressure;Samples;Min_cycle;Max_cycle;Signal;HPM_P1;HPM_P2
2021/04/21 00:00:57;;;;;;;16.48;10.38;;;;;;;9.28;70.00;99410.56;5015859;28;20439;-53
2021/04/21 00:03:22;;;;;;;19.95;11.52;;;;;;;9.26;69.70;99405.38;5033387;28;20065;-52
2021/04/21 00:05:48;;;;;;;17.80;11.48;;;;;;;9.24;69.67;99412.38;5015709;28;20469;-53
2021/04/21 00:08:14;;;;;;;17.58;11.80;;;;;;;9.21;69.93;99406.38;5015833;28;20048;-52
2021/04/21 00:10:40;;;;;;;21.67;12.52;;;;;;;9.11;70.66;99409.22;5032250;28;20053;-53
2021/04/21 00:13:09;;;;;;;19.58;11.90;;;;;;;9.11;70.41;99408.38;5032320;28;20404;-53
2021/04/21 00:15:35;;;;;;;19.77;12.80;;;;;;;9.01;70.44;99405.13;5033426;28;20053;-52
2021/04/21 00:18:02;;;;;;;19.27;12.23;;;;;;;8.94;70.24;99402.69;5036750;28;20053;-53
2021/04/21 00:20:28;;;;;;;20.83;11.85;;;;;;;8.92;70.16;99402.75;5019398;28;20129;-53
2021/04/21 00:22:55;;;;;;;18.30;12.57;;;;;;;8.85;70.02;99402.03;5035463;28;20136;-52
2021/04/21 00:25:22;;;;;;;17.77;11.70;;;;;;;8.78;70.11;99400.47;5036632;28;20045;-52
2021/04/21 00:27:50;;;;;;;17.40;11.23;;;;;;;8.75;70.33;99394.47;5019278;28;20041;-53
2021/04/21 00:30:16;;;;;;;21.63;12.90;;;;;;;8.69;69.95;99392.88;5036467;28;20069;-52
2021/04/21 00:32:45;;;;;;;22.42;11.93;;;;;;;8.62;70.04;99391.31;5035327;28;20065;-53
2021/04/21 00:35:12;;;;;;;20.70;12.48;;;;;;;8.53;70.69;99388.91;5035664;28;20049;-52
2021/04/21 00:37:37;;;;;;;17.60;11.30;;;;;;;8.50;70.37;99389.81;5019033;28;20336;-53
2021/04/21 00:40:04;;;;;;;20.92;12.45;;;;;;;8.43;70.55;99390.88;5018800;28;20057;-52
2021/04/21 00:42:53;;;;;;;19.70;11.32;;;;;;;8.36;70.80;99397.09;5036067;28;20068;-53
2021/04/21 00:45:19;;;;;;;18.33;11.77;;;;;;;8.26;70.35;99396.44;5036071;28;20049;-52
2021/04/21 00:48:17;;;;;;;20.60;13.27;;;;;;;8.17;71.59;99396.63;5036267;28;20106;-52
2021/04/21 00:50:55;;;;;;;17.95;11.68;;;;;;;8.07;71.28;99398.56;5035816;28;20084;-53
2021/04/21 00:53:33;;;;;;;24.23;15.20;;;;;;;7.94;73.30;99399.72;5036236;28;20046;-52
2021/04/21 00:56:06;;;;;;;19.33;12.73;;;;;;;7.87;72.74;99396.41;5019614;28;20076;-53
2021/04/21 00:58:52;;;;;;;22.88;14.80;;;;;;;7.79;73.17;99398.28;5019413;28;20053;-53
2021/04/21 01:01:18;;;;;;;20.63;13.07;;;;;;;7.75;73.38;99388.81;5018908;28;20053;-52
2021/04/21 01:03:44;;;;;;;21.58;13.82;;;;;;;7.72;72.99;99394.94;5002767;28;20367;-54
2021/04/21 01:06:12;;;;;;;19.63;12.77;;;;;;;7.70;72.73;99390.63;5002545;28;20071;-52
2021/04/21 01:08:50;;;;;;;19.23;12.95;;;;;;;7.62;73.55;99397.78;5018868;28;20050;-52
2021/04/21 01:11:36;;;;;;;22.80;13.68;;;;;;;7.57;73.69;99397.00;5018480;28;20362;-53
2021/04/21 01:14:11;;;;;;;27.25;15.65;;;;;;;7.47;74.23;99394.59;5018845;28;20041;-53
2021/04/21 01:16:37;;;;;;;31.73;17.35;;;;;;;7.36;75.64;99401.72;5018963;28;20049;-53
2021/04/21 01:19:21;;;;;;;25.30;16.55;;;;;;;7.39;75.65;99396.47;5018601;28;20114;-52
2021/04/21 01:21:51;;;;;;;23.85;15.90;;;;;;;7.32;76.12;99394.84;5034668;28;20054;-53
2021/04/21 01:24:34;;;;;;;26.95;18.35;;;;;;;7.30;76.34;99393.16;5034906;28;20045;-52
2021/04/21 01:27:10;;;;;;;23.63;15.13;;;;;;;7.26;76.07;99387.16;5034319;28;20166;-52
2021/04/21 01:29:38;;;;;;;27.85;17.15;;;;;;;7.17;76.68;99390.78;5034616;28;20060;-53
2021/04/21 01:32:10;;;;;;;29.67;18.27;;;;;;;7.18;76.16;99386.41;5034517;28;20053;-52
2021/04/21 01:34:36;;;;;;;31.33;17.30;;;;;;;7.11;76.46;99385.66;5035620;28;20090;-52
2021/04/21 01:37:04;;;;;;;25.92;15.82;;;;;;;7.12;76.00;99391.75;5034694;28;20045;-53
2021/04/21 01:39:29;;;;;;;25.52;16.08;;;;;;;7.08;76.05;99390.94;5034849;28;20038;-53
2021/04/21 01:41:56;;;;;;;26.10;15.75;;;;;;;7.03;76.03;99388.41;5034408;28;20053;-53
2021/04/21 01:44:26;;;;;;;27.17;15.90;;;;;;;6.98;76.65;99381.56;5034876;28;20046;-53
2021/04/21 01:47:02;;;;;;;27.45;16.98;;;;;;;6.95;76.32;99379.84;5018685;28;20046;-52
2021/04/21 01:49:34;;;;;;;27.95;16.33;;;;;;;6.91;76.38;99379.94;5017857;28;20114;-53
2021/04/21 01:52:38;;;;;;;28.73;15.15;;;;;;;6.86;76.58;99381.75;5035354;28;20355;-53
2021/04/21 01:55:22;;;;;;;27.00;16.33;;;;;;;6.78;77.00;99382.75;5049716;28;20054;-52
2021/04/21 01:58:00;;;;;;;27.05;16.50;;;;;;;6.73;77.50;99375.94;5034969;28;20061;-52
2021/04/21 02:00:37;;;;;;;25.55;16.08;;;;;;;6.69;77.87;99376.84;5018276;28;20045;-53
2021/04/21 02:03:30;;;;;;;27.35;16.55;;;;;;;6.65;77.98;99368.22;5035235;28;20064;-53
2021/04/21 02:06:19;;;;;;;24.20;15.52;;;;;;;6.61;77.72;99376.13;5035178;28;20061;-52
2021/04/21 02:09:00;;;;;;;22.27;14.80;;;;;;;6.57;77.66;99375.31;5035429;28;20083;-53
2021/04/21 02:11:26;;;;;;;24.30;15.13;;;;;;;6.54;77.33;99363.19;5034975;28;20056;-53
2021/04/21 02:14:15;;;;;;;23.10;15.85;;;;;;;6.57;77.52;99369.25;5017472;28;20432;-52
2021/04/21 02:16:54;;;;;;;24.95;15.65;;;;;;;6.53;77.49;99368.41;5033809;28;20496;-52
2021/04/21 02:19:34;;;;;;;28.23;16.48;;;;;;;6.50;77.43;99363.25;5034102;28;20077;-52
2021/04/21 02:22:16;;;;;;;26.67;16.65;;;;;;;6.48;77.57;99365.03;5035364;27;20053;-53
2021/04/21 02:24:53;;;;;;;25.08;16.45;;;;;;;6.45;77.81;99358.13;5033738;28;20470;-53
2021/04/21 02:27:38;;;;;;;25.17;16.40;;;;;;;6.40;78.10;99359.06;5017727;28;20463;-52
2021/04/21 02:30:13;;;;;;;25.73;16.80;;;;;;;6.42;77.98;99352.97;5034348;28;20443;-52
2021/04/21 02:32:47;;;;;;;27.40;16.75;;;;;;;6.43;78.06;99359.03;5035023;28;20052;-53
2021/04/21 02:35:16;;;;;;;27.45;17.83;;;;;;;6.39;78.39;99355.63;5033850;28;20102;-52
2021/04/21 02:38:01;;;;;;;27.45;16.30;;;;;;;6.39;78.25;99357.38;5033487;28;20049;-53
2021/04/21 02:40:38;;;;;;;27.23;17.58;;;;;;;6.36;78.28;99354.81;5034283;28;20098;-53
2021/04/21 02:43:26;;;;;;;27.92;18.75;;;;;;;6.33;79.29;99350.50;5018538;28;20057;-53
2021/04/21 02:46:07;;;;;;;30.20;19.63;;;;;;;6.33;78.72;99347.91;5034211;28;20041;-53
2021/04/21 02:49:09;;;;;;;34.28;24.85;;;;;;;6.30;78.79;99347.94;5001401;28;20041;-53
2021/04/21 02:51:43;;;;;;;32.80;22.85;;;;;;;6.29;78.75;99348.84;5033158;28;20127;-52
2021/04/21 02:54:27;;;;;;;30.27;20.92;;;;;;;6.29;78.82;99351.44;5033886;28;20048;-53
2021/04/21 02:57:00;;;;;;;26.35;18.98;;;;;;;6.35;78.85;99350.50;5034392;28;20037;-53
2021/04/21 02:59:44;;;;;;;27.75;19.48;;;;;;;6.38;79.12;99348.72;5033347;28;20041;-53
2021/04/21 03:02:22;;;;;;;30.38;17.52;;;;;;;6.43;79.01;99354.69;5034251;28;20145;-53
2021/04/21 03:04:50;;;;;;;26.85;17.17;;;;;;;6.45;78.99;99352.06;5034232;28;20038;-53
2021/04/21 03:08:05;;;;;;;27.23;18.52;;;;;;;6.50;79.11;99353.72;5033954;28;20069;-53
2021/04/21 03:10:35;;;;;;;28.45;19.00;;;;;;;6.51;79.10;99346.78;5037222;28;20049;-52
2021/04/21 03:13:18;;;;;;;30.45;18.45;;;;;;;6.57;79.37;99351.88;5017538;28;20418;-53
2021/04/21 03:15:46;;;;;;;28.43;18.37;;;;;;;6.55;79.52;99349.28;5017013;28;20102;-52
2021/04/21 03:18:15;;;;;;;27.58;18.48;;;;;;;6.63;79.12;99353.50;5033128;28;20296;-53
2021/04/21 03:20:41;;;;;;;31.77;19.38;;;;;;;6.63;79.11;99348.31;5017070;28;20041;-52
2021/04/21 03:23:07;;;;;;;27.52;18.27;;;;;;;6.70;78.95;99356.00;5016619;28;20059;-53
2021/04/21 03:25:34;;;;;;;27.55;19.00;;;;;;;6.74;78.93;99343.78;5016379;28;20073;-52
2021/04/21 03:28:03;;;;;;;28.73;19.02;;;;;;;6.77;78.97;99344.59;5016695;28;20060;-53
2021/04/21 03:30:29;;;;;;;26.63;17.73;;;;;;;6.80;78.97;99348.91;5032892;28;20042;-52
2021/04/21 03:33:12;;;;;;;30.02;20.25;;;;;;;6.83;78.91;99348.00;5032890;28;20064;-53
2021/04/21 03:35:38;;;;;;;29.65;19.45;;;;;;;6.78;79.04;99346.31;5033486;28;20054;-52
2021/04/21 03:38:08;;;;;;;28.85;19.60;;;;;;;6.87;78.82;99347.06;5032840;28;20180;-52
2021/04/21 03:40:35;;;;;;;25.98;18.33;;;;;;;6.88;78.96;99346.16;5032809;28;20073;-53
2021/04/21 03:43:01;;;;;;;28.88;20.05;;;;;;;6.93;79.00;99353.00;5033364;28;20434;-53
2021/04/21 03:45:27;;;;;;;28.88;19.98;;;;;;;6.81;80.06;99348.00;5033363;28;20090;-53
2021/04/21 03:47:56;;;;;;;30.85;19.67;;;;;;;6.93;79.50;99353.00;5016342;28;20072;-52
2021/04/21 03:50:22;;;;;;;26.92;18.85;;;;;;;6.94;79.83;99354.72;5031299;28;20359;-52
2021/04/21 03:52:51;;;;;;;27.75;18.50;;;;;;;7.00;79.63;99354.63;5033520;28;20053;-52
2021/04/21 03:55:17;;;;;;;33.10;21.08;;;;;;;6.94;80.33;99353.88;5032647;28;20358;-52
2021/04/21 03:57:43;;;;;;;30.20;21.52;;;;;;;7.00;79.92;99356.38;5015875;28;20058;-53
2021/04/21 04:00:13;;;;;;;29.67;20.08;;;;;;;7.08;79.60;99359.69;5032554;28;20041;-52
2021/04/21 04:02:39;;;;;;;33.53;21.92;;;;;;;7.09;79.60;99356.22;5033086;28;20057;-52
2021/04/21 04:05:05;;;;;;;33.72;23.92;;;;;;;7.14;79.36;99350.91;5032177;28;20077;-53
2021/04/21 04:07:35;;;;;;;30.33;21.63;;;;;;;7.16;79.41;99342.19;5032090;28;20049;-53
2021/04/21 04:10:02;;;;;;;30.92;20.13;;;;;;;7.17;79.62;99350.84;5032070;28;20455;-52
2021/04/21 04:12:27;;;;;;;30.83;21.40;;;;;;;7.19;79.35;99354.28;5032957;28;20050;-52
2021/04/21 04:14:54;;;;;;;34.90;23.73;;;;;;;7.22;79.20;99349.03;5016264;28;20049;-52
2021/04/21 04:17:21;;;;;;;35.17;22.92;;;;;;;7.22;78.93;99347.28;5032932;28;20439;-53
2021/04/21 04:19:47;;;;;;;35.63;25.20;;;;;;;7.22;79.25;99352.50;5032031;28;20443;-52
2021/04/21 04:22:13;;;;;;;36.50;24.73;;;;;;;7.25;79.23;99354.19;4999757;28;20055;-53
2021/04/21 04:24:43;;;;;;;39.67;24.73;;;;;;;7.31;79.40;99356.66;5033070;28;20057;-52
2021/04/21 04:27:17;;;;;;;35.28;26.13;;;;;;;7.36;79.46;99349.63;5032193;28;20049;-53
2021/04/21 04:29:43;;;;;;;38.55;26.65;;;;;;;7.32;79.92;99360.13;5033002;28;20056;-53
2021/04/21 04:32:15;;;;;;;39.60;27.67;;;;;;;7.46;79.66;99355.50;5032675;28;20405;-52
2021/04/21 04:34:46;;;;;;;44.03;29.13;;;;;;;7.40;80.50;99356.47;5032684;28;20049;-53
2021/04/21 04:37:16;;;;;;;43.20;27.75;;;;;;;7.50;80.45;99357.16;5032635;28;20523;-52
2021/04/21 04:39:42;;;;;;;35.33;23.98;;;;;;;7.61;80.17;99356.97;5033468;28;20049;-53
2021/04/21 04:42:08;;;;;;;39.83;28.00;;;;;;;7.72;79.69;99353.22;5032880;28;20064;-52
2021/04/21 04:44:42;;;;;;;36.22;26.30;;;;;;;7.81;79.58;99353.94;5031996;28;20053;-53
2021/04/21 04:47:12;;;;;;;54.65;32.55;;;;;;;7.81;80.01;99356.56;5032626;28;20046;-52
2021/04/21 04:50:06;;;;;;;52.30;31.88;;;;;;;7.97;79.50;99357.94;5031673;28;20053;-52
2021/04/21 04:52:43;;;;;;;52.78;32.85;;;;;;;8.00;79.42;99364.84;5032752;28;20050;-53
2021/04/21 04:55:10;;;;;;;46.55;30.17;;;;;;;8.09;79.33;99364.63;5033274;28;20102;-53
2021/04/21 04:57:38;;;;;;;43.95;27.33;;;;;;;8.16;78.92;99372.31;5032387;28;20045;-52
2021/04/21 05:00:06;;;;;;;47.33;31.10;;;;;;;8.19;78.80;99364.41;5032336;28;20435;-53
2021/04/21 05:02:35;;;;;;;45.85;29.52;;;;;;;8.20;78.96;99365.25;5034470;28;20060;-52
2021/04/21 05:05:04;;;;;;;43.00;27.30;;;;;;;8.27;78.59;99363.38;5035201;28;20050;-53
2021/04/21 05:07:37;;;;;;;54.72;33.05;;;;;;;8.29;78.47;99364.22;5035789;28;20416;-52
2021/04/21 05:10:10;;;;;;;44.15;27.30;;;;;;;8.31;78.48;99358.03;5034868;28;20401;-52
2021/04/21 05:12:38;;;;;;;41.00;26.20;;;;;;;8.28;78.68;99359.84;5035919;28;20049;-52
2021/04/21 05:15:05;;;;;;;42.28;25.15;;;;;;;8.28;78.79;99362.47;5018961;28;20052;-52
2021/04/21 05:18:09;;;;;;;38.15;26.42;;;;;;;8.32;79.02;99353.66;5035553;28;20053;-52
2021/04/21 05:21:02;;;;;;;35.63;22.67;;;;;;;8.31;79.10;99365.84;5035874;28;20041;-52
2021/04/21 05:23:55;;;;;;;37.58;24.70;;;;;;;8.34;79.07;99354.50;5035111;28;20053;-53
2021/04/21 05:26:31;;;;;;;39.08;25.63;;;;;;;8.36;79.37;99361.41;5034647;28;20094;-53
2021/04/21 05:29:11;;;;;;;46.95;28.98;;;;;;;8.39;79.31;99366.59;5034509;28;20343;-52
2021/04/21 05:31:52;;;;;;;47.47;34.80;;;;;;;8.34;79.78;99365.78;5036388;28;20064;-53
2021/04/21 05:34:45;;;;;;;52.78;36.17;;;;;;;8.50;79.02;99361.09;5035732;28;20049;-52
2021/04/21 05:37:48;;;;;;;79.03;47.75;;;;;;;8.51;78.86;99365.44;5018444;28;20058;-52
2021/04/21 05:40:51;;;;;;;53.00;31.65;;;;;;;8.58;79.07;99364.41;5035505;28;20049;-52
2021/04/21 05:44:08;;;;;;;50.38;29.65;;;;;;;8.65;79.17;99360.75;5035515;28;20054;-52
2021/04/21 05:46:43;;;;;;;46.85;27.15;;;;;;;8.83;78.83;99356.81;5068865;28;20053;-52
2021/04/21 05:49:46;;;;;;;50.40;28.05;;;;;;;9.31;78.98;99363.44;5035412;28;20046;-52
2021/04/21 05:52:21;;;;;;;43.83;27.65;;;;;;;9.55;78.44;99374.97;5035081;28;20482;-52
2021/04/21 05:54:56;;;;;;;40.78;26.92;;;;;;;9.99;77.59;99365.84;5034524;28;20053;-52
2021/04/21 05:57:42;;;;;;;38.03;25.73;;;;;;;10.64;77.12;99369.13;5035281;28;20063;-53
2021/04/21 06:00:26;;;;;;;38.08;24.30;;;;;;;11.43;75.44;99363.78;5034557;28;20045;-53
2021/04/21 06:02:52;;;;;;;39.17;24.13;;;;;;;12.28;73.94;99360.69;5034062;28;20470;-53
2021/04/21 06:05:18;;;;;;;34.60;23.88;;;;;;;12.82;70.74;99362.03;5034310;28;20075;-53
2021/04/21 06:07:44;;;;;;;38.20;23.63;;;;;;;13.16;69.68;99363.25;5034847;28;20125;-52
2021/04/21 06:10:29;;;;;;;35.72;22.95;;;;;;;13.49;65.61;99361.84;5034987;28;20098;-52
2021/04/21 06:13:01;;;;;;;30.73;20.95;;;;;;;14.24;66.64;99360.19;5034736;28;20069;-53
2021/04/21 06:15:28;;;;;;;24.73;18.77;;;;;;;14.55;64.63;99362.22;5034806;28;20052;-54
2021/04/21 06:17:55;;;;;;;25.13;17.13;;;;;;;14.37;63.22;99355.19;5035574;28;20084;-52
2021/04/21 06:20:38;;;;;;;22.83;16.60;;;;;;;14.14;62.60;99361.56;5034843;28;20106;-52
2021/04/21 06:23:14;;;;;;;21.38;17.25;;;;;;;14.02;63.09;99355.91;5034789;28;20049;-52
2021/04/21 06:25:57;;;;;;;25.00;16.52;;;;;;;14.05;63.33;99364.59;5034887;28;20072;-53
2021/04/21 06:28:23;;;;;;;26.33;16.58;;;;;;;14.19;62.81;99372.72;5034826;28;20047;-52
2021/04/21 06:30:50;;;;;;;26.08;18.70;;;;;;;14.10;62.72;99378.41;5034695;28;20102;-52
2021/04/21 06:33:16;;;;;;;28.95;19.25;;;;;;;13.99;62.83;99374.47;5034400;28;20439;-53
2021/04/21 06:35:43;;;;;;;26.17;18.45;;;;;;;13.97;62.59;99367.56;5034383;28;20042;-53
2021/04/21 06:38:08;;;;;;;27.25;19.42;;;;;;;13.76;63.38;99379.94;5034318;28;20343;-53
2021/04/21 06:40:35;;;;;;;26.33;17.60;;;;;;;13.83;63.58;99373.47;5033705;28;20080;-52
2021/04/21 06:43:01;;;;;;;25.02;17.75;;;;;;;13.66;63.96;99374.22;5035384;28;20054;-53
2021/04/21 06:45:29;;;;;;;29.20;19.45;;;;;;;13.69;63.95;99368.84;5033884;28;20434;-53
2021/04/21 06:47:55;;;;;;;25.27;17.55;;;;;;;13.69;64.02;99362.72;5017724;28;20051;-53
2021/04/21 06:50:29;;;;;;;23.55;16.63;;;;;;;13.78;64.02;99372.84;5034027;28;20049;-53
2021/04/21 06:52:58;;;;;;;21.20;16.38;;;;;;;13.95;64.08;99362.38;5017989;28;20053;-53
2021/04/21 06:55:24;;;;;;;24.65;15.20;;;;;;;14.27;63.35;99363.53;5033292;28;20347;-55
2021/04/21 06:57:50;;;;;;;24.45;15.77;;;;;;;14.48;62.73;99356.38;5034374;28;20052;-53
2021/04/21 07:00:21;;;;;;;21.95;14.45;;;;;;;14.68;62.25;99367.75;5034772;28;20060;-53
2021/04/21 07:02:55;;;;;;;24.65;16.75;;;;;;;14.53;61.82;99360.59;5034017;28;20484;-53
2021/04/21 07:05:32;;;;;;;21.23;15.07;;;;;;;14.42;61.65;99356.66;5033910;28;20378;-53
2021/04/21 07:08:11;;;;;;;19.20;14.40;;;;;;;14.51;60.91;99357.19;5034142;28;20120;-53
2021/04/21 07:10:39;;;;;;;20.95;12.88;;;;;;;14.55;60.67;99359.59;5034054;28;20057;-53
2021/04/21 07:13:07;;;;;;;14.82;12.18;;;;;;;14.56;60.17;99353.41;5033896;28;20046;-53
2021/04/21 07:15:32;;;;;;;15.20;12.60;;;;;;;14.53;60.18;99357.94;5033796;28;20436;-53
2021/04/21 07:17:58;;;;;;;19.60;12.98;;;;;;;14.46;59.62;99338.91;5016798;28;20076;-53
2021/04/21 07:20:24;;;;;;;16.52;11.93;;;;;;;14.47;60.04;99349.41;5033474;28;20487;-53
2021/04/21 07:22:50;;;;;;;16.00;11.30;;;;;;;14.51;59.19;99352.78;5016571;28;20041;-53
2021/04/21 07:25:16;;;;;;;18.52;12.77;;;;;;;14.32;59.17;99328.22;5000588;28;20049;-53
2021/04/21 07:27:48;;;;;;;14.45;10.20;;;;;;;14.11;59.76;99336.22;5016729;28;20049;-53
2021/04/21 07:30:14;;;;;;;15.07;9.18;;;;;;;14.25;59.76;99344.28;5016725;28;20386;-53
2021/04/21 07:32:44;;;;;;;19.95;15.25;;;;;;;14.17;59.79;99342.94;5017215;28;20049;-53
2021/04/21 07:35:19;;;;;;;14.52;11.45;;;;;;;14.24;59.44;99350.50;5033538;28;20427;-53
2021/04/21 07:37:44;;;;;;;15.05;10.60;;;;;;;14.20;59.80;99350.69;5033123;28;20089;-53
2021/04/21 07:40:26;;;;;;;14.18;10.38;;;;;;;14.21;59.37;99355.91;5033723;28;20050;-53
2021/04/21 07:43:16;;;;;;;21.85;13.90;;;;;;;14.17;60.29;99356.09;5033745;28;20069;-53
2021/04/21 07:45:45;;;;;;;22.10;14.80;;;;;;;14.16;60.79;99357.03;5033702;28;20057;-53
2021/04/21 07:48:43;;;;;;;31.02;20.48;;;;;;;14.20;60.14;99361.22;5033580;28;20046;-52
2021/04/21 07:51:15;;;;;;;21.40;15.23;;;;;;;14.33;60.80;99372.06;5066365;28;20058;-53
2021/04/21 07:53:55;;;;;;;21.50;16.08;;;;;;;14.57;60.35;99370.06;5033612;28;20053;-53
2021/04/21 07:56:22;;;;;;;23.00;13.93;;;;;;;14.75;58.99;99370.94;5033268;28;20102;-53
2021/04/21 07:58:51;;;;;;;18.33;12.73;;;;;;;14.79;59.51;99370.75;5033150;28;20443;-53
2021/04/21 08:01:17;;;;;;;18.17;11.88;;;;;;;14.86;59.00;99372.13;5033515;28;20049;-53
2021/04/21 08:03:42;;;;;;;20.33;11.93;;;;;;;14.97;58.66;99371.59;5029407;28;20405;-53
2021/04/21 08:06:08;;;;;;;16.70;11.82;;;;;;;15.14;58.75;99368.09;5033146;28;20041;-53
2021/04/21 08:08:35;;;;;;;17.50;11.13;;;;;;;15.37;58.93;99364.28;5033147;28;20041;-53
2021/04/21 08:11:02;;;;;;;16.70;13.15;;;;;;;15.76;58.75;99363.16;5033222;28;20126;-53
2021/04/21 08:13:45;;;;;;;18.50;13.40;;;;;;;16.00;57.30;99366.28;5033016;28;20044;-53
2021/04/21 08:16:23;;;;;;;;;;;;;;;16.19;57.48;99366.16;5033632;28;20053;-54
2021/04/21 08:18:48;;;;;;;17.45;13.35;;;;;;;16.73;56.92;99358.69;5033202;28;19921;-54
2021/04/21 08:21:36;;;;;;;17.95;13.15;;;;;;;17.18;55.73;99356.97;5032122;28;20443;-54
2021/04/21 08:24:09;;;;;;;16.23;13.02;;;;;;;17.65;55.03;99361.22;5033188;28;20053;-54
2021/04/21 08:26:34;;;;;;;17.15;12.75;;;;;;;17.86;54.26;99359.06;5032889;28;20049;-54
2021/04/21 08:29:00;;;;;;;14.52;11.75;;;;;;;17.97;53.62;99352.16;5032809;28;20447;-54
2021/04/21 08:31:27;;;;;;;17.85;12.70;;;;;;;18.28;53.33;99354.66;5032719;28;20133;-54
2021/04/21 08:33:53;;;;;;;16.63;12.23;;;;;;;18.53;53.01;99360.09;5032722;28;20053;-54
2021/04/21 08:36:19;;;;;;;19.15;12.85;;;;;;;18.57;51.11;99358.09;5033414;28;20098;-55
2021/04/21 08:38:46;;;;;;;32.53;21.92;;;;;;;18.83;50.60;99362.56;5036453;28;20053;-55
2021/04/21 08:41:14;;;;;;;26.77;18.52;;;;;;;18.97;50.77;99358.97;5036469;28;20045;-54
2021/04/21 08:43:40;;;;;;;35.00;22.77;;;;;;;19.08;49.00;99360.94;5019204;28;20041;-55
2021/04/21 08:46:06;;;;;;;19.95;16.90;;;;;;;19.10;49.75;99366.97;5036359;28;20053;-54
2021/04/21 08:48:32;;;;;;;17.67;13.60;;;;;;;19.20;49.06;99362.75;5036324;28;20049;-55
2021/04/21 08:50:58;;;;;;;13.60;10.88;;;;;;;19.32;48.51;99359.25;5035729;28;20470;-55
2021/04/21 08:53:24;;;;;;;15.35;11.88;;;;;;;19.45;46.95;99361.09;5036005;28;20069;-55
2021/04/21 08:55:50;;;;;;;13.23;11.02;;;;;;;19.54;47.23;99357.81;5035392;28;20045;-55
2021/04/21 08:58:15;;;;;;;16.48;11.52;;;;;;;19.64;46.90;99355.41;5035112;28;20354;-55
2021/04/21 09:00:41;;;;;;;15.23;10.25;;;;;;;19.66;46.36;99353.47;5035345;28;20090;-55
2021/04/21 09:03:07;;;;;;;16.90;9.25;;;;;;;19.68;46.95;99357.72;5035051;28;20037;-55
2021/04/21 09:05:33;;;;;;;11.55;9.77;;;;;;;19.85;46.69;99356.53;5035796;28;20447;-55
2021/04/21 09:07:59;;;;;;;17.10;10.43;;;;;;;19.86;45.48;99352.94;5035757;28;20049;-55
2021/04/21 09:10:25;;;;;;;11.68;9.57;;;;;;;19.94;44.88;99353.22;5035631;28;20049;-55
2021/04/21 09:12:50;;;;;;;11.20;9.23;;;;;;;20.06;45.20;99343.53;5035105;28;20045;-55
2021/04/21 09:15:17;;;;;;;12.18;9.05;;;;;;;20.03;45.50;99349.91;5035979;28;20045;-55
2021/04/21 09:17:43;;;;;;;12.63;9.10;;;;;;;20.25;43.92;99349.25;5035529;28;20049;-55
2021/04/21 09:20:13;;;;;;;11.25;8.93;;;;;;;20.35;43.05;99338.78;5035882;28;20046;-55
2021/04/21 09:22:59;;;;;;;14.63;8.35;;;;;;;20.10;39.91;99344.16;5035898;28;20045;-55
2021/04/21 09:25:24;;;;;;;9.10;7.20;;;;;;;19.99;41.56;99337.81;5035799;28;20416;-55
2021/04/21 09:27:54;;;;;;;11.18;7.55;;;;;;;20.24;42.28;99339.53;5018323;28;20042;-55
2021/04/21 09:30:21;;;;;;;10.57;8.02;;;;;;;20.46;41.37;99335.31;5035629;28;20045;-55
2021/04/21 09:32:55;;;;;;;10.88;8.13;;;;;;;20.63;41.75;99329.63;5034475;28;20056;-55
2021/04/21 09:35:33;;;;;;;11.18;8.40;;;;;;;20.45;40.95;99326.50;5034512;28;20077;-55
2021/04/21 09:38:18;;;;;;;9.02;7.30;;;;;;;20.27;40.49;99334.00;5035601;28;20102;-55
2021/04/21 09:40:48;;;;;;;10.38;6.28;;;;;;;19.65;38.33;99328.72;5035596;28;20049;-55
2021/04/21 09:43:19;;;;;;;7.20;4.90;;;;;;;19.25;37.28;99334.09;5035524;28;20059;-55
2021/04/21 09:45:46;;;;;;;7.30;3.25;;;;;;;19.06;36.25;99331.84;5035151;28;20057;-54
2021/04/21 09:48:13;;;;;;;12.68;8.88;;;;;;;19.36;35.50;99322.72;5033181;28;20057;-55
2021/04/21 09:50:40;;;;;;;26.10;23.40;;;;;;;19.44;35.39;99328.38;5034963;28;20057;-55
2021/04/21 09:53:41;;;;;;;15.82;14.38;;;;;;;19.74;33.30;99322.75;5035329;28;20059;-55
2021/04/21 09:56:07;;;;;;;6.05;4.40;;;;;;;19.96;33.05;99316.78;5067328;28;20093;-55
2021/04/21 09:58:34;;;;;;;5.15;4.03;;;;;;;20.11;31.76;99311.31;5035192;28;20535;-55
2021/04/21 10:00:59;;;;;;;7.45;3.80;;;;;;;20.24;31.95;99318.25;5035115;28;20459;-56
2021/04/21 10:03:25;;;;;;;4.88;3.40;;;;;;;20.15;32.10;99310.09;5034898;28;20076;-55
2021/04/21 10:05:51;;;;;;;8.57;4.03;;;;;;;20.29;31.76;99307.31;5035548;28;20041;-55
2021/04/21 10:08:27;;;;;;;6.88;4.30;;;;;;;20.44;31.47;99314.19;5034444;28;20053;-55
2021/04/21 10:11:00;;;;;;;5.88;4.50;;;;;;;20.29;31.29;99308.16;5032904;28;20041;-55
2021/04/21 10:13:26;;;;;;;6.65;4.32;;;;;;;20.20;31.32;99307.97;5033536;28;20038;-55
2021/04/21 10:15:52;;;;;;;6.78;4.22;;;;;;;20.17;30.54;99309.03;5034570;28;20049;-55
2021/04/21 10:18:18;;;;;;;7.97;4.28;;;;;;;20.29;31.11;99308.16;5033387;28;20340;-55
2021/04/21 10:20:44;;;;;;;9.23;4.30;;;;;;;20.38;31.60;99313.78;5034518;28;20041;-56
2021/04/21 10:23:12;;;;;;;7.05;4.00;;;;;;;20.38;30.62;99311.13;5033967;28;20049;-55
2021/04/21 10:25:38;;;;;;;7.22;4.25;;;;;;;20.51;30.11;99298.66;5035139;28;20065;-55
2021/04/21 10:28:04;;;;;;;7.05;4.05;;;;;;;20.42;29.88;99301.94;5034815;28;20053;-55
2021/04/21 10:30:30;;;;;;;8.55;4.18;;;;;;;20.43;30.63;99307.13;5033890;28;20485;-56
2021/04/21 10:32:56;;;;;;;7.15;4.05;;;;;;;20.51;31.52;99298.66;5034425;28;20450;-55
2021/04/21 10:35:21;;;;;;;7.07;4.85;;;;;;;20.71;32.28;99305.13;5034450;28;20095;-56
2021/04/21 10:37:47;;;;;;;7.60;4.75;;;;;;;20.81;31.94;99299.97;5034705;28;20385;-56
2021/04/21 10:40:25;;;;;;;6.65;4.70;;;;;;;20.90;31.47;99294.81;5034598;28;20188;-56
2021/04/21 10:42:58;;;;;;;5.05;3.70;;;;;;;20.95;31.70;99297.94;5034619;28;20046;-55
2021/04/21 10:45:26;;;;;;;7.15;4.32;;;;;;;21.21;31.39;99303.94;5035087;28;20053;-56
2021/04/21 10:47:53;;;;;;;6.20;3.95;;;;;;;21.08;31.53;99297.03;5034520;28;20084;-56
2021/04/21 10:50:42;;;;;;;8.73;4.68;;;;;;;20.89;31.50;99297.56;5034103;28;20064;-56
2021/04/21 10:53:23;;;;;;;11.95;6.05;;;;;;;20.79;30.91;99300.06;5034426;28;20114;-56
2021/04/21 10:55:49;;;;;;;7.15;4.22;;;;;;;20.68;31.71;99300.03;5033511;28;20060;-56
2021/04/21 10:58:14;;;;;;;12.38;4.57;;;;;;;20.63;31.41;99299.53;5034477;28;20073;-55
2021/04/21 11:00:45;;;;;;;7.22;4.53;;;;;;;20.82;32.57;99299.84;5033621;28;20049;-56
2021/04/21 11:03:14;;;;;;;6.60;4.63;;;;;;;21.25;32.64;99296.56;5034258;28;20118;-56
2021/04/21 11:05:47;;;;;;;6.43;5.18;;;;;;;21.59;31.39;99292.16;5033915;28;20328;-56
2021/04/21 11:08:20;;;;;;;6.47;4.82;;;;;;;21.73;31.17;99284.91;5033966;28;20098;-56
2021/04/21 11:10:46;;;;;;;7.68;4.18;;;;;;;21.93;29.51;99287.66;5034302;28;20052;-56
2021/04/21 11:13:17;;;;;;;12.68;7.30;;;;;;;21.55;28.39;99297.88;5033858;28;20046;-56
2021/04/21 11:15:48;;;;;;;6.20;4.57;;;;;;;21.55;28.38;99287.22;5033157;28;20439;-56
2021/04/21 11:18:21;;;;;;;5.70;4.57;;;;;;;21.56;28.29;99286.22;5034079;28;20406;-56
2021/04/21 11:20:46;;;;;;;10.23;3.97;;;;;;;21.37;30.46;99290.31;5034605;28;20094;-56
2021/04/21 11:23:56;;;;;;;8.98;4.18;;;;;;;21.38;28.61;99285.84;5033708;28;20061;-56
2021/04/21 11:26:22;;;;;;;5.70;3.58;;;;;;;21.05;29.82;99292.78;5033674;28;20552;-55
2021/04/21 11:29:08;;;;;;;6.47;3.58;;;;;;;20.96;30.50;99282.81;5033658;28;20117;-55
2021/04/21 11:31:39;;;;;;;5.45;4.57;;;;;;;20.56;29.76;99287.66;5033531;28;20045;-55
2021/04/21 11:34:30;;;;;;;6.57;4.50;;;;;;;20.33;30.06;99287.50;5033789;28;20053;-55
2021/04/21 11:36:56;;;;;;;8.80;4.68;;;;;;;20.31;29.81;99284.97;5033583;28;20355;-55
2021/04/21 11:39:47;;;;;;;7.45;4.50;;;;;;;20.16;28.16;99279.94;5033468;28;20076;-55
2021/04/21 11:42:28;;;;;;;5.07;3.63;;;;;;;20.19;28.93;99280.56;5033660;28;20443;-55
2021/04/21 11:44:58;;;;;;;4.43;3.67;;;;;;;20.08;29.23;99273.38;5033702;28;20154;-55
2021/04/21 11:47:35;;;;;;;5.50;3.92;;;;;;;20.05;29.84;99278.03;5034003;28;20057;-55
2021/04/21 11:50:05;;;;;;;4.40;3.70;;;;;;;19.76;30.97;99281.00;5033288;28;20066;-55